Time;durP1;ratioP1;P1;durP2;ratioP2;P2;SDS_P1;SDS_P2;PMS_P1;PMS_P2;Temp;Humidity;BMP_temperature;BMP_pressure;BME280_temperature;BME280_humidity;BME280_pressure;Samples;Min_cycle;Max_cycle;Signal;HPM_P1;HPM_P2
2022/12/24 00:01:56;;;;;;;85.47;31.15;;;13.10;63.30;;;;;;4974413;28;20131;-86
2022/12/24 00:04:22;;;;;;;87.85;31.42;;;12.80;63.80;;;;;;4974824;28;20122;-87
2022/12/24 00:06:47;;;;;;;118.53;36.83;;;12.70;63.60;;;;;;4978226;28;20089;-87
2022/12/24 00:09:13;;;;;;;100.93;33.05;;;12.70;64.00;;;;;;4977754;28;20074;-86
2022/12/24 00:11:39;;;;;;;101.40;35.40;;;12.90;63.70;;;;;;4961729;28;20394;-88
2022/12/24 00:14:04;;;;;;;76.30;32.30;;;12.80;63.60;;;;;;4961853;28;20110;-87
2022/12/24 00:16:30;;;;;;;82.05;32.50;;;12.80;63.50;;;;;;4962645;28;20038;-86
2022/12/24 00:18:56;;;;;;;79.38;33.25;;;12.80;64.00;;;;;;4961885;28;20027;-87
2022/12/24 00:21:21;;;;;;;92.13;31.52;;;12.70;63.40;;;;;;4961842;28;20089;-85
2022/12/24 00:23:47;;;;;;;77.63;31.77;;;12.10;64.90;;;;;;4961718;28;20034;-86
2022/12/24 00:26:13;;;;;;;68.25;28.35;;;12.20;65.90;;;;;;4961994;28;20027;-90
2022/12/24 00:28:39;;;;;;;81.55;31.48;;;12.50;64.80;;;;;;4958582;29;20394;-88
2022/12/24 00:31:15;;;;;;;79.25;30.85;;;12.70;64.10;;;;;;4942817;29;20447;-87
2022/12/24 00:33:41;;;;;;;81.03;30.35;;;12.80;63.50;;;;;;4942666;29;20071;-87
2022/12/24 00:36:08;;;;;;;72.38;29.70;;;13.00;63.20;;;;;;4942400;29;20027;-91
2022/12/24 00:38:34;;;;;;;75.43;30.33;;;13.10;63.00;;;;;;4942028;29;20023;-87
2022/12/24 00:41:01;;;;;;;70.75;28.90;;;13.00;63.50;;;;;;4942411;29;20418;-89
2022/12/24 00:43:27;;;;;;;74.80;29.85;;;13.10;62.90;;;;;;4942028;29;20054;-87
2022/12/24 00:45:53;;;;;;;69.20;28.33;;;12.90;63.00;;;;;;4941846;29;20086;-87
2022/12/24 00:48:28;;;;;;;68.32;29.33;;;13.00;63.20;;;;;;4941923;29;20036;-88
2022/12/24 00:50:54;;;;;;;65.63;29.70;;;13.10;63.10;;;;;;4942220;29;20063;-88
2022/12/24 00:53:19;;;;;;;65.15;29.30;;;13.10;62.90;;;;;;4941944;29;20062;-90
2022/12/24 00:56:00;;;;;;;70.30;30.73;;;13.10;62.70;;;;;;4942324;29;20526;-89
2022/12/24 00:58:26;;;;;;;58.35;26.77;;;13.00;62.70;;;;;;4941648;29;20098;-87
2022/12/24 01:00:51;;;;;;;69.18;29.73;;;13.00;63.00;;;;;;4941160;29;20434;-89
2022/12/24 01:03:17;;;;;;;72.28;29.90;;;12.90;63.10;;;;;;4959415;28;20022;-85
2022/12/24 01:05:43;;;;;;;68.07;28.17;;;12.90;63.80;;;;;;4977219;28;20030;-89
2022/12/24 01:08:08;;;;;;;94.80;35.05;;;13.00;63.00;;;;;;4975948;28;20484;-86
2022/12/24 01:10:36;;;;;;;68.75;29.98;;;12.80;64.00;;;;;;4967644;28;20055;-87
2022/12/24 01:13:02;;;;;;;68.00;30.00;;;12.80;63.60;;;;;;4977029;28;20027;-91
2022/12/24 01:15:29;;;;;;;67.65;29.25;;;12.80;63.30;;;;;;4977445;28;20030;-86
2022/12/24 01:17:54;;;;;;;74.40;30.27;;;12.70;64.00;;;;;;4976631;28;20117;-88
2022/12/24 01:20:20;;;;;;;73.65;32.33;;;12.80;64.20;;;;;;4976663;28;20450;-86
2022/12/24 01:22:49;;;;;;;66.63;29.73;;;12.90;63.80;;;;;;4976951;28;20058;-86
2022/12/24 01:25:32;;;;;;;64.57;29.55;;;13.10;63.50;;;;;;4978097;28;20103;-88
2022/12/24 01:27:57;;;;;;;61.72;28.38;;;12.80;63.60;;;;;;4976599;28;20089;-87
2022/12/24 01:30:29;;;;;;;66.68;28.10;;;12.70;64.10;;;;;;4973759;28;20032;-87
2022/12/24 01:32:55;;;;;;;68.20;29.75;;;12.80;63.20;;;;;;4957019;29;20035;-87
2022/12/24 01:35:33;;;;;;;74.82;30.90;;;12.70;64.30;;;;;;4957317;28;20549;-87
2022/12/24 01:37:59;;;;;;;72.97;31.52;;;12.60;63.90;;;;;;4957446;29;20031;-88
2022/12/24 01:43:22;;;;;;;66.95;29.00;;;12.40;65.30;;;;;;4958831;29;20191;-88
2022/12/24 01:45:51;;;;;;;59.92;28.38;;;12.60;64.70;;;;;;4957276;29;20027;-88
2022/12/24 01:48:39;;;;;;;62.97;28.40;;;12.80;63.90;;;;;;4956861;29;20031;-87
2022/12/24 01:51:36;;;;;;;68.35;30.30;;;13.00;63.30;;;;;;4957151;29;20031;-91
2022/12/24 01:54:06;;;;;;;77.22;31.30;;;13.00;63.10;;;;;;4956726;29;20027;-89
2022/12/24 01:56:36;;;;;;;91.78;33.10;;;12.80;64.00;;;;;;4956650;29;20486;-87
2022/12/24 01:59:09;;;;;;;73.07;31.08;;;13.00;63.60;;;;;;4956571;29;20050;-90
2022/12/24 02:01:35;;;;;;;66.93;29.75;;;13.00;63.40;;;;;;4956471;28;20090;-88
2022/12/24 02:04:12;;;;;;;66.63;30.15;;;12.90;63.60;;;;;;4956524;29;20063;-87
2022/12/24 02:06:37;;;;;;;65.35;28.80;;;13.00;63.60;;;;;;4956337;28;20023;-87
2022/12/24 02:09:03;;;;;;;74.97;31.35;;;13.00;63.10;;;;;;4957252;28;20038;-89
2022/12/24 02:11:29;;;;;;;87.45;32.67;;;12.70;64.00;;;;;;4976375;28;20055;-88
2022/12/24 02:13:59;;;;;;;73.45;30.40;;;12.60;64.90;;;;;;4975796;28;20122;-89
2022/12/24 02:17:37;;;;;;;89.30;36.58;;;12.80;63.70;;;;;;4976668;28;20026;-87
2022/12/24 02:20:23;;;;;;;60.08;27.70;;;12.90;64.20;;;;;;4955449;29;20043;-88
2022/12/24 02:23:14;;;;;;;63.97;28.70;;;12.90;63.40;;;;;;4938690;29;20058;-88
2022/12/24 02:26:04;;;;;;;68.90;29.35;;;12.70;63.80;;;;;;4939393;29;20039;-89
2022/12/24 02:28:49;;;;;;;70.40;30.48;;;12.50;64.60;;;;;;4938973;29;20474;-88
2022/12/24 02:31:31;;;;;;;62.15;30.02;;;12.50;64.60;;;;;;4920258;29;20031;-89
2022/12/24 02:34:09;;;;;;;76.38;30.95;;;12.80;63.90;;;;;;4933914;29;20099;-86
2022/12/24 02:37:15;;;;;;;77.47;31.83;;;13.20;62.80;;;;;;4937819;29;20035;-88
2022/12/24 02:40:05;;;;;;;54.58;26.30;;;13.40;62.40;;;;;;4938883;29;20031;-89
2022/12/24 02:42:40;;;;;;;102.07;37.17;;;13.50;62.40;;;;;;4920666;29;20044;-88
2022/12/24 02:45:19;;;;;;;118.43;37.92;;;13.60;62.20;;;;;;4931803;29;20486;-88
2022/12/24 02:47:47;;;;;;;73.82;31.35;;;13.70;61.70;;;;;;4939130;29;20143;-88
2022/12/24 02:50:37;;;;;;;74.72;32.10;;;13.80;61.60;;;;;;4951399;28;20055;-87
2022/12/24 02:53:12;;;;;;;62.88;29.45;;;13.40;61.30;;;;;;4972026;28;20027;-88
2022/12/24 02:59:27;;;;;;;64.40;29.65;;;13.40;62.30;;;;;;4959325;28;20133;-88
2022/12/24 03:02:12;;;;;;;111.40;37.63;;;13.30;62.50;;;;;;4955832;29;20043;-88
2022/12/24 03:04:51;;;;;;;140.70;41.17;;;13.50;61.70;;;;;;4971352;28;20122;-86
2022/12/24 03:07:30;;;;;;;84.47;34.72;;;13.50;61.80;;;;;;4970044;28;20069;-87
2022/12/24 03:10:08;;;;;;;90.13;33.60;;;13.50;62.10;;;;;;4971491;28;20070;-87
2022/12/24 03:12:41;;;;;;;63.13;28.80;;;13.60;61.70;;;;;;4955674;29;20038;-87
2022/12/24 03:15:19;;;;;;;63.60;29.33;;;13.60;61.70;;;;;;4975112;28;20023;-87
2022/12/24 03:17:48;;;;;;;66.90;29.83;;;13.50;62.20;;;;;;4955228;28;20038;-86
2022/12/24 03:20:33;;;;;;;60.05;29.05;;;13.40;61.90;;;;;;4987373;28;20034;-87
2022/12/24 03:22:59;;;;;;;70.97;30.35;;;13.30;62.20;;;;;;4971551;28;20035;-87
2022/12/24 03:25:26;;;;;;;71.75;30.50;;;13.40;62.50;;;;;;4974385;28;20023;-88
2022/12/24 03:27:55;;;;;;;58.88;28.85;;;13.50;62.00;;;;;;4974668;28;20390;-87
2022/12/24 03:30:21;;;;;;;59.60;28.40;;;13.70;61.70;;;;;;4955184;29;20050;-89
2022/12/24 03:32:47;;;;;;;59.83;27.83;;;13.60;60.80;;;;;;4955383;28;20074;-88
2022/12/24 03:35:13;;;;;;;107.10;36.75;;;13.70;61.00;;;;;;4955229;29;20020;-88
2022/12/24 03:37:39;;;;;;;104.35;36.60;;;13.50;61.70;;;;;;4955159;28;20066;-90
2022/12/24 03:40:06;;;;;;;79.68;32.20;;;13.60;61.20;;;;;;4955268;29;20023;-88
2022/12/24 03:42:32;;;;;;;74.53;31.67;;;13.70;61.30;;;;;;4955925;28;20544;-88
2022/12/24 03:44:57;;;;;;;87.50;33.63;;;13.70;61.40;;;;;;4955701;29;20031;-90
2022/12/24 03:47:23;;;;;;;47.65;24.45;;;13.90;61.30;;;;;;4955690;28;20027;-88
2022/12/24 03:49:49;;;;;;;78.65;32.83;;;13.90;60.80;;;;;;4955733;29;20035;-88
2022/12/24 03:52:15;;;;;;;63.75;29.38;;;13.90;61.00;;;;;;4955228;28;20023;-87
2022/12/24 03:54:40;;;;;;;82.55;31.77;;;13.90;61.10;;;;;;4955070;29;20023;-87
2022/12/24 03:57:09;;;;;;;89.63;33.65;;;13.80;61.70;;;;;;4955207;29;20478;-88
2022/12/24 03:59:35;;;;;;;56.60;28.90;;;13.90;61.40;;;;;;4955001;29;20031;-88
2022/12/24 04:02:00;;;;;;;57.20;27.40;;;13.90;61.50;;;;;;4955045;28;20039;-85
2022/12/24 04:04:26;;;;;;;52.03;27.55;;;13.90;61.40;;;;;;4954964;29;20024;-87
2022/12/24 04:06:52;;;;;;;66.20;29.38;;;13.70;61.50;;;;;;4955011;29;20042;-85
2022/12/24 04:09:17;;;;;;;56.58;26.60;;;13.90;61.00;;;;;;4954759;28;20031;-88
2022/12/24 04:11:43;;;;;;;56.20;27.85;;;14.00;60.50;;;;;;4954665;29;20410;-86
2022/12/24 04:14:09;;;;;;;62.65;29.13;;;14.00;60.70;;;;;;4954960;28;20027;-88
2022/12/24 04:16:34;;;;;;;45.83;25.05;;;13.90;60.70;;;;;;4955766;29;20035;-87
2022/12/24 04:19:00;;;;;;;54.63;28.48;;;13.80;61.20;;;;;;4955520;28;20027;-90
2022/12/24 04:21:26;;;;;;;81.32;34.42;;;13.50;62.00;;;;;;4955314;29;20035;-90
2022/12/24 04:23:51;;;;;;;59.92;29.20;;;13.60;61.80;;;;;;4955002;29;20550;-89
2022/12/24 04:26:17;;;;;;;49.10;26.25;;;13.70;61.40;;;;;;4954801;29;20130;-88
2022/12/24 04:28:43;;;;;;;67.72;31.05;;;13.60;61.40;;;;;;4954626;29;20027;-86
2022/12/24 04:31:15;;;;;;;58.42;28.05;;;13.50;61.30;;;;;;4955374;29;20466;-86
2022/12/24 04:33:41;;;;;;;75.13;30.88;;;13.60;61.50;;;;;;4954665;29;20096;-86
2022/12/24 04:36:10;;;;;;;68.72;31.20;;;13.70;61.20;;;;;;4957012;28;20048;-86
2022/12/24 04:38:36;;;;;;;57.53;28.08;;;13.70;61.10;;;;;;4958160;29;20027;-91
2022/12/24 04:41:04;;;;;;;50.88;25.63;;;13.70;60.90;;;;;;4958722;28;20038;-90
2022/12/24 04:43:31;;;;;;;55.30;27.15;;;13.60;60.20;;;;;;4976030;28;20030;-90
2022/12/24 04:46:05;;;;;;;62.80;29.58;;;13.50;61.00;;;;;;4978198;28;20385;-86
2022/12/24 04:48:31;;;;;;;59.63;28.48;;;13.50;60.40;;;;;;4974320;28;20023;-88
2022/12/24 04:51:04;;;;;;;64.82;30.63;;;13.60;60.30;;;;;;4959193;28;20042;-87
2022/12/24 04:53:31;;;;;;;48.42;25.70;;;13.70;60.10;;;;;;4973977;28;20031;-87
2022/12/24 04:56:22;;;;;;;46.83;25.42;;;13.50;60.20;;;;;;4978474;28;20023;-86
2022/12/24 04:58:48;;;;;;;50.17;25.95;;;13.40;60.40;;;;;;4976825;28;20022;-90
2022/12/24 05:01:23;;;;;;;51.10;26.65;;;13.30;61.30;;;;;;4992996;28;20034;-86
2022/12/24 05:03:49;;;;;;;56.88;30.75;;;13.20;61.30;;;;;;4973570;28;20410;-86
2022/12/24 05:06:31;;;;;;;58.47;31.98;;;13.30;61.00;;;;;;4973927;28;20019;-87
2022/12/24 05:08:58;;;;;;;51.05;27.15;;;13.30;60.80;;;;;;4957763;29;20027;-87
2022/12/24 05:11:24;;;;;;;47.05;25.70;;;13.30;60.00;;;;;;4957276;29;20394;-88
2022/12/24 05:13:50;;;;;;;47.38;25.83;;;13.20;59.80;;;;;;4973201;28;20034;-85
2022/12/24 05:16:18;;;;;;;52.53;27.35;;;12.90;60.30;;;;;;4976602;28;20501;-85
2022/12/24 05:18:44;;;;;;;45.38;24.55;;;12.70;61.30;;;;;;4976504;28;20042;-86
2022/12/24 05:21:15;;;;;;;55.05;27.88;;;12.50;61.70;;;;;;4976757;28;20067;-85
2022/12/24 05:26:28;;;;;;;60.08;27.85;;;12.20;63.50;;;;;;4978275;28;20081;-89
2022/12/24 05:28:57;;;;;;;130.07;59.40;;;12.00;64.20;;;;;;4977086;28;20161;-87
2022/12/24 05:31:24;;;;;;;74.10;36.20;;;11.50;64.70;;;;;;4976515;28;20027;-89
2022/12/24 05:33:53;;;;;;;106.88;44.10;;;10.70;67.20;;;;;;4976730;28;20540;-91
2022/12/24 05:36:19;;;;;;;109.47;46.72;;;10.60;68.40;;;;;;4976862;28;20031;-90
2022/12/24 05:38:45;;;;;;;97.85;43.22;;;10.90;68.10;;;;;;4973337;28;20023;-85
2022/12/24 05:41:10;;;;;;;92.03;35.92;;;11.50;65.80;;;;;;4957426;29;20046;-89
2022/12/24 05:43:36;;;;;;;123.05;37.17;;;12.00;64.50;;;;;;4957751;29;20027;-88
2022/12/24 05:46:05;;;;;;;62.95;28.80;;;12.30;64.10;;;;;;4956906;29;20478;-85
2022/12/24 05:48:34;;;;;;;66.47;29.13;;;12.40;62.60;;;;;;4956487;28;20054;-85
2022/12/24 05:51:04;;;;;;;97.40;29.98;;;12.50;62.50;;;;;;4957103;29;20030;-87
2022/12/24 05:53:31;;;;;;;108.80;29.85;;;12.50;61.60;;;;;;4958439;29;20023;-87
2022/12/24 05:56:08;;;;;;;79.38;27.30;;;12.30;62.00;;;;;;4975575;28;20050;-89
2022/12/24 05:58:35;;;;;;;72.20;28.45;;;12.00;62.90;;;;;;4992030;28;20381;-89
2022/12/24 06:01:01;;;;;;;206.55;43.60;;;11.70;63.50;;;;;;4975927;28;20031;-89
2022/12/24 06:03:28;;;;;;;69.40;32.33;;;11.60;64.60;;;;;;4976101;28;20030;-89
2022/12/24 06:06:01;;;;;;;55.30;29.55;;;11.80;64.30;;;;;;4976354;28;20374;-86
2022/12/24 06:08:27;;;;;;;53.35;27.75;;;11.70;64.40;;;;;;4975974;28;20031;-89
2022/12/24 06:10:58;;;;;;;82.47;34.67;;;12.00;63.20;;;;;;4975776;28;20055;-88
2022/12/24 06:13:24;;;;;;;55.67;29.95;;;12.00;63.90;;;;;;4976114;28;20106;-86
2022/12/24 06:15:53;;;;;;;54.03;28.75;;;12.20;63.10;;;;;;4972577;28;20067;-86
2022/12/24 06:18:19;;;;;;;86.65;33.05;;;12.30;62.20;;;;;;4956429;29;20034;-86
2022/12/24 06:20:44;;;;;;;57.42;33.78;;;12.30;62.10;;;;;;4970905;28;20035;-90
2022/12/24 06:23:10;;;;;;;78.10;41.67;;;11.90;62.90;;;;;;4976276;28;20464;-88
2022/12/24 06:25:42;;;;;;;45.67;25.13;;;11.50;65.70;;;;;;4966094;28;20023;-87
2022/12/24 06:28:07;;;;;;;42.17;22.77;;;11.70;68.80;;;;;;4957085;29;20031;-87
2022/12/24 06:30:33;;;;;;;44.08;22.52;;;12.10;69.20;;;;;;4956459;29;20027;-86
2022/12/24 06:32:59;;;;;;;36.22;20.88;;;12.50;69.40;;;;;;4960388;28;20054;-87
2022/12/24 06:35:25;;;;;;;33.63;19.75;;;12.80;70.70;;;;;;4968259;28;20034;-90
2022/12/24 06:37:51;;;;;;;32.03;19.73;;;13.00;70.30;;;;;;4964452;28;20027;-88
2022/12/24 06:40:17;;;;;;;36.50;21.80;;;13.20;70.80;;;;;;4974392;28;20031;-88
2022/12/24 06:42:42;;;;;;;35.83;20.77;;;13.50;70.00;;;;;;4972906;28;20039;-88
2022/12/24 06:45:08;;;;;;;26.33;17.80;;;13.80;69.10;;;;;;4972590;28;20458;-89
2022/12/24 06:47:40;;;;;;;29.23;18.17;;;13.90;69.00;;;;;;4972343;28;20478;-87
2022/12/24 06:50:06;;;;;;;31.65;19.10;;;14.00;68.60;;;;;;4972451;28;20493;-87
2022/12/24 06:52:32;;;;;;;25.60;17.10;;;14.10;67.90;;;;;;5010303;28;20428;-86
2022/12/24 06:54:58;;;;;;;27.15;17.02;;;14.10;69.00;;;;;;4994419;28;20077;-89
2022/12/24 06:57:23;;;;;;;24.92;16.05;;;14.00;69.30;;;;;;4994279;28;20030;-87
2022/12/24 06:59:49;;;;;;;27.52;16.27;;;14.00;69.50;;;;;;4985356;28;20045;-82
2022/12/24 07:02:15;;;;;;;24.30;15.90;;;14.10;68.90;;;;;;4974414;28;20478;-86
2022/12/24 07:04:40;;;;;;;22.23;14.80;;;14.10;69.10;;;;;;4974247;28;20457;-89
2022/12/24 07:07:06;;;;;;;22.80;14.70;;;14.00;69.10;;;;;;4974957;28;20062;-85
2022/12/24 07:09:32;;;;;;;20.15;13.60;;;14.10;69.50;;;;;;4973826;28;20019;-78
2022/12/24 07:11:57;;;;;;;22.35;14.25;;;13.90;69.80;;;;;;4975193;28;20023;-87
2022/12/24 07:14:23;;;;;;;22.95;14.15;;;13.90;70.90;;;;;;4974973;28;20454;-86
2022/12/24 07:16:49;;;;;;;20.52;13.35;;;14.00;70.70;;;;;;4973814;28;20045;-84
2022/12/24 07:19:14;;;;;;;23.67;13.48;;;14.10;69.30;;;;;;4958517;28;20466;-88
2022/12/24 07:21:40;;;;;;;23.00;14.70;;;14.00;70.40;;;;;;4958612;28;20035;-89
2022/12/24 07:24:06;;;;;;;18.77;12.82;;;14.30;69.30;;;;;;4957784;28;20054;-85
2022/12/24 07:26:32;;;;;;;18.60;12.35;;;14.30;69.20;;;;;;4944346;28;20031;-88
2022/12/24 07:28:57;;;;;;;19.02;13.00;;;14.30;69.30;;;;;;4958738;28;20027;-90
2022/12/24 07:31:23;;;;;;;19.23;12.57;;;14.30;68.90;;;;;;4957392;28;20231;-88
2022/12/24 07:33:50;;;;;;;18.52;11.77;;;14.30;69.00;;;;;;4962452;28;20043;-89
2022/12/24 07:36:20;;;;;;;15.55;10.77;;;14.50;68.60;;;;;;4963934;28;20385;-88
2022/12/24 07:38:46;;;;;;;16.00;11.38;;;14.60;68.50;;;;;;4968232;28;20488;-88
2022/12/24 07:41:13;;;;;;;16.73;11.13;;;14.80;67.50;;;;;;4947827;29;20035;-86
2022/12/24 07:43:38;;;;;;;16.88;11.40;;;14.80;67.30;;;;;;4952168;29;20027;-85
2022/12/24 07:46:04;;;;;;;19.90;11.45;;;15.00;67.50;;;;;;4941172;28;20090;-87
2022/12/24 07:48:31;;;;;;;18.05;11.60;;;15.00;66.60;;;;;;4958130;28;20030;-88
2022/12/24 07:50:57;;;;;;;16.85;10.45;;;14.80;67.40;;;;;;4954842;29;20023;-88
2022/12/24 07:53:24;;;;;;;16.67;11.10;;;15.00;67.00;;;;;;4954943;29;20038;-88
2022/12/24 07:55:50;;;;;;;17.63;10.82;;;14.80;67.20;;;;;;4951257;29;20086;-90
2022/12/24 07:58:16;;;;;;;15.38;10.82;;;14.50;68.00;;;;;;4961237;28;20618;-86
2022/12/24 08:00:42;;;;;;;16.65;10.93;;;14.10;69.60;;;;;;4962754;28;20038;-87
2022/12/24 08:03:17;;;;;;;16.25;11.30;;;14.10;69.50;;;;;;4957491;28;20070;-88
2022/12/24 08:05:43;;;;;;;16.52;10.48;;;14.40;68.70;;;;;;4958222;28;20038;-87
2022/12/24 08:08:08;;;;;;;17.13;10.77;;;14.70;68.20;;;;;;4958022;28;20031;-86
2022/12/24 08:11:01;;;;;;;16.05;10.25;;;14.80;67.40;;;;;;4965635;28;20110;-88
2022/12/24 08:13:27;;;;;;;15.40;10.88;;;14.80;67.70;;;;;;4957645;29;20036;-82
2022/12/24 08:15:53;;;;;;;14.95;9.88;;;14.90;67.10;;;;;;4990490;28;20019;-87
2022/12/24 08:18:22;;;;;;;16.90;10.55;;;14.90;67.00;;;;;;4975769;28;20061;-88
2022/12/24 08:20:48;;;;;;;14.05;9.63;;;15.10;66.70;;;;;;4958151;29;20027;-86
2022/12/24 08:23:14;;;;;;;15.93;9.73;;;15.30;66.40;;;;;;4957646;28;20038;-87
2022/12/24 08:25:44;;;;;;;15.88;10.32;;;15.50;65.90;;;;;;4968809;28;20453;-84
2022/12/24 08:28:10;;;;;;;;;;;15.50;65.70;;;;;;4977710;28;20027;-85
2022/12/24 08:30:36;;;;;;;13.85;9.13;;;15.60;65.90;;;;;;4973949;28;19929;-86
2022/12/24 08:33:02;;;;;;;13.27;9.07;;;15.60;66.10;;;;;;4969586;28;20055;-85
2022/12/24 08:35:28;;;;;;;15.00;8.93;;;15.70;65.70;;;;;;4974259;28;20367;-86
2022/12/24 08:37:53;;;;;;;13.13;9.05;;;15.80;65.40;;;;;;4971791;28;20078;-87
2022/12/24 08:40:19;;;;;;;14.07;9.27;;;15.80;65.50;;;;;;4977148;28;20050;-86
2022/12/24 08:42:45;;;;;;;12.77;8.93;;;15.60;65.30;;;;;;4976705;28;20046;-89
2022/12/24 08:45:11;;;;;;;12.32;8.23;;;15.60;66.10;;;;;;4977123;28;20070;-90
2022/12/24 08:47:37;;;;;;;10.75;7.75;;;15.80;65.60;;;;;;4992797;28;20031;-84
2022/12/24 08:50:07;;;;;;;11.88;8.15;;;15.70;65.20;;;;;;4964445;28;20027;-86
2022/12/24 08:52:33;;;;;;;13.50;8.45;;;16.00;65.50;;;;;;4979387;28;20031;-89
2022/12/24 08:54:58;;;;;;;12.10;7.75;;;16.40;64.20;;;;;;4972587;28;20026;-86
2022/12/24 08:57:27;;;;;;;9.55;6.97;;;16.80;64.20;;;;;;4973710;28;20822;-88
2022/12/24 08:59:56;;;;;;;10.02;7.40;;;17.60;63.10;;;;;;4985558;28;20035;-85
2022/12/24 09:02:21;;;;;;;11.05;7.32;;;18.70;60.90;;;;;;4976551;28;20070;-87
2022/12/24 09:04:47;;;;;;;12.20;7.45;;;19.60;58.90;;;;;;4968341;28;20027;-84
2022/12/24 09:07:15;;;;;;;8.82;6.43;;;20.20;57.20;;;;;;4971937;28;20039;-88
2022/12/24 09:09:41;;;;;;;9.23;6.78;;;20.10;57.30;;;;;;4974537;28;20031;-84
2022/12/24 09:12:07;;;;;;;11.30;7.63;;;20.10;57.50;;;;;;4959524;28;20379;-85
2022/12/24 09:14:33;;;;;;;9.00;6.63;;;20.00;56.80;;;;;;4959665;28;20038;-86
2022/12/24 09:16:59;;;;;;;9.52;6.88;;;19.50;57.70;;;;;;4959467;28;20027;-86
2022/12/24 09:19:26;;;;;;;11.73;7.00;;;19.50;57.90;;;;;;4958993;28;20023;-87
2022/12/24 09:21:51;;;;;;;13.65;8.50;;;19.70;57.00;;;;;;4953301;28;20039;-85
2022/12/24 09:24:17;;;;;;;12.80;7.22;;;19.70;57.30;;;;;;4959968;28;20027;-85
2022/12/24 09:26:44;;;;;;;9.07;6.10;;;20.30;56.70;;;;;;4957576;28;20094;-88
2022/12/24 09:29:10;;;;;;;10.07;6.28;;;20.00;55.80;;;;;;4956325;29;20027;-89
2022/12/24 09:31:36;;;;;;;10.85;5.97;;;18.90;58.00;;;;;;4957895;28;20031;-84
2022/12/24 09:34:02;;;;;;;10.40;6.07;;;18.50;58.60;;;;;;4956250;28;20038;-84
2022/12/24 09:36:27;;;;;;;10.57;6.85;;;18.40;58.80;;;;;;4956846;28;20042;-87
2022/12/24 09:39:02;;;;;;;10.05;6.25;;;18.60;59.00;;;;;;4956445;29;20062;-89
2022/12/24 09:41:52;;;;;;;9.25;5.78;;;19.30;58.50;;;;;;4969969;28;20398;-88
2022/12/24 09:44:45;;;;;;;8.85;5.85;;;19.70;56.60;;;;;;4974524;28;20038;-86
2022/12/24 09:47:25;;;;;;;10.45;6.03;;;19.60;57.00;;;;;;4963759;28;20033;-86
2022/12/24 09:49:53;;;;;;;9.68;6.38;;;19.50;56.80;;;;;;4959425;28;20553;-86
2022/12/24 09:52:31;;;;;;;69.20;44.97;;;19.20;57.50;;;;;;4959497;28;20375;-85
2022/12/24 09:55:05;;;;;;;779.97;586.50;;;18.60;58.60;;;;;;4955919;29;20023;-87
2022/12/24 09:57:36;;;;;;;74.70;67.07;;;18.50;59.00;;;;;;4959013;28;20027;-83
2022/12/24 10:00:04;;;;;;;59.78;53.75;;;18.10;60.30;;;;;;4955572;29;20026;-85
2022/12/24 10:02:31;;;;;;;40.17;36.28;;;18.10;60.30;;;;;;4950755;28;20034;-86
2022/12/24 10:04:57;;;;;;;13.02;9.45;;;17.40;61.00;;;;;;4958610;28;20027;-85
2022/12/24 10:07:34;;;;;;;19.23;12.38;;;17.20;62.40;;;;;;4954440;29;20027;-82
2022/12/24 10:10:35;;;;;;;12.00;7.97;;;17.20;62.20;;;;;;4956214;29;20168;-85
2022/12/24 10:13:16;;;;;;;14.65;10.77;;;16.90;63.30;;;;;;4956286;29;20028;-84
2022/12/24 10:16:20;;;;;;;10.80;8.20;;;17.20;62.60;;;;;;4964496;28;20034;-86
2022/12/24 10:19:02;;;;;;;19.38;17.50;;;17.30;62.20;;;;;;4919989;29;20530;-84
2022/12/24 10:21:34;;;;;;;30.77;27.85;;;17.30;61.70;;;;;;4919841;29;20052;-84
2022/12/24 10:24:09;;;;;;;25.77;23.33;;;17.20;62.80;;;;;;4920007;29;20465;-87
2022/12/24 10:26:49;;;;;;;31.30;28.23;;;17.30;62.20;;;;;;4919560;29;20027;-84
2022/12/24 10:29:22;;;;;;;35.60;32.00;;;17.60;61.40;;;;;;4919616;29;20482;-85
2022/12/24 10:32:08;;;;;;;37.40;29.42;;;17.60;61.40;;;;;;4916493;29;20028;-86
2022/12/24 10:34:50;;;;;;;20.88;16.30;;;17.70;61.30;;;;;;4591065;28;10000133;-87
2022/12/24 10:37:23;;;;;;;30.40;16.65;;;17.70;61.50;;;;;;4911121;29;20562;-88
2022/12/24 10:39:49;;;;;;;21.85;11.95;;;17.60;61.70;;;;;;4918930;29;20123;-84
2022/12/24 10:42:17;;;;;;;17.92;10.95;;;17.70;61.60;;;;;;4918907;29;20110;-85
2022/12/24 10:44:48;;;;;;;18.13;10.25;;;17.90;60.90;;;;;;4929141;29;20035;-86
2022/12/24 10:47:15;;;;;;;11.98;9.13;;;18.00;60.70;;;;;;4917137;29;20123;-84
2022/12/24 10:49:48;;;;;;;13.35;11.80;;;17.90;60.80;;;;;;4918099;29;20031;-85
2022/12/24 10:52:19;;;;;;;7.97;5.95;;;17.80;61.40;;;;;;4917468;29;20662;-84
2022/12/24 10:55:06;;;;;;;10.77;6.88;;;17.70;61.80;;;;;;4945189;28;20042;-85
2022/12/24 10:57:33;;;;;;;8.35;5.63;;;18.10;61.30;;;;;;4956953;28;20095;-86
2022/12/24 11:00:00;;;;;;;11.43;6.75;;;18.10;61.20;;;;;;4956562;28;20126;-86
2022/12/24 11:02:33;;;;;;;8.38;7.55;;;18.50;61.00;;;;;;4957907;28;20043;-85
2022/12/24 11:05:02;;;;;;;7.85;4.88;;;19.00;59.70;;;;;;4938985;28;20048;-87
2022/12/24 11:07:30;;;;;;;6.07;4.60;;;19.10;59.40;;;;;;4969752;28;20451;-89
2022/12/24 11:10:18;;;;;;;11.02;9.93;;;19.30;59.20;;;;;;4958102;28;20130;-88
2022/12/24 11:12:48;;;;;;;13.48;11.23;;;19.20;59.50;;;;;;4958962;28;20520;-84
2022/12/24 11:15:23;;;;;;;24.23;13.50;;;19.20;59.20;;;;;;4944642;28;20113;-86
2022/12/24 11:18:04;;;;;;;42.47;37.92;;;18.90;59.90;;;;;;4955586;29;20032;-86
2022/12/24 11:20:33;;;;;;;21.23;19.13;;;18.60;60.10;;;;;;4955678;29;20034;-86
2022/12/24 11:23:00;;;;;;;13.07;11.77;;;18.90;60.60;;;;;;4966173;28;20046;-82
2022/12/24 11:25:40;;;;;;;7.53;6.38;;;19.30;59.40;;;;;;4958107;28;20030;-88
2022/12/24 11:28:34;;;;;;;5.50;3.37;;;19.30;58.90;;;;;;4957951;28;20035;-84
2022/12/24 11:31:19;;;;;;;8.38;6.45;;;19.10;58.90;;;;;;4625744;28;10000138;-87
2022/12/24 11:33:48;;;;;;;22.45;20.35;;;19.10;58.20;;;;;;4952738;28;20035;-89
2022/12/24 11:36:20;;;;;;;25.98;23.77;;;18.70;58.60;;;;;;4955937;28;20043;-85
2022/12/24 11:38:55;;;;;;;9.27;7.88;;;18.60;58.50;;;;;;4956413;28;20426;-85
2022/12/24 11:41:22;;;;;;;8.10;5.53;;;18.50;57.80;;;;;;4957214;28;20027;-82
2022/12/24 11:43:57;;;;;;;9.70;7.32;;;18.60;58.00;;;;;;4957101;28;20385;-83
2022/12/24 11:46:45;;;;;;;7.30;5.65;;;18.50;57.20;;;;;;4960288;28;20058;-84
2022/12/24 11:49:10;;;;;;;12.57;11.27;;;18.30;57.50;;;;;;4960887;28;20122;-84
2022/12/24 11:51:45;;;;;;;9.60;7.88;;;18.50;57.80;;;;;;4955404;29;20123;-85
2022/12/24 11:54:36;;;;;;;10.10;6.88;;;18.70;57.80;;;;;;4974112;28;20077;-84
2022/12/24 11:57:06;;;;;;;8.32;4.78;;;18.70;57.00;;;;;;4959800;28;20034;-91
2022/12/24 11:59:43;;;;;;;7.03;3.08;;;18.80;56.60;;;;;;4961958;28;20026;-88
2022/12/24 12:02:22;;;;;;;6.68;3.55;;;18.40;57.30;;;;;;4961486;28;20042;-87
2022/12/24 12:05:02;;;;;;;10.30;7.53;;;18.40;58.00;;;;;;4961224;28;20031;-87
2022/12/24 12:07:34;;;;;;;9.77;7.03;;;18.30;57.40;;;;;;4961723;28;20026;-88
2022/12/24 12:10:16;;;;;;;8.73;5.03;;;18.00;58.50;;;;;;4961529;28;20510;-91
2022/12/24 12:13:05;;;;;;;6.80;2.58;;;17.90;59.00;;;;;;4977768;28;20094;-86
2022/12/24 12:15:39;;;;;;;6.88;2.72;;;18.50;57.60;;;;;;4938873;29;20031;-85
2022/12/24 12:18:18;;;;;;;5.63;3.03;;;18.40;57.60;;;;;;4922633;29;20043;-84
2022/12/24 12:20:51;;;;;;;4.90;2.67;;;18.90;57.30;;;;;;4921860;29;20039;-87
2022/12/24 12:23:25;;;;;;;7.78;2.72;;;18.80;56.60;;;;;;4921969;29;20031;-85
2022/12/24 12:26:27;;;;;;;10.27;3.88;;;18.70;56.60;;;;;;4922255;29;20119;-90
2022/12/24 12:28:58;;;;;;;6.63;2.95;;;18.70;57.10;;;;;;4922446;29;20134;-85
2022/12/24 12:31:31;;;;;;;5.57;4.88;;;18.80;56.50;;;;;;4922810;29;20028;-87
2022/12/24 12:34:11;;;;;;;6.90;4.68;;;18.80;57.00;;;;;;4922585;29;20044;-86
2022/12/24 12:36:49;;;;;;;6.90;3.28;;;18.70;57.20;;;;;;4921588;29;20043;-86
2022/12/24 12:39:16;;;;;;;6.05;3.65;;;18.70;56.80;;;;;;4922664;29;20040;-85
2022/12/24 12:42:01;;;;;;;6.25;4.00;;;18.60;57.10;;;;;;4922487;29;20035;-87
2022/12/24 12:44:35;;;;;;;5.82;3.83;;;18.10;58.10;;;;;;4921681;29;20048;-85
2022/12/24 12:47:54;;;;;;;6.57;2.90;;;18.40;58.30;;;;;;4937951;29;20042;-84
2022/12/24 12:50:43;;;;;;;6.97;6.05;;;18.30;57.40;;;;;;4881263;29;20033;-86
2022/12/24 12:53:43;;;;;;;8.75;4.70;;;18.50;57.80;;;;;;4892543;29;20043;-84
2022/12/24 12:56:16;;;;;;;7.13;4.35;;;18.50;57.40;;;;;;4902948;29;20987;-84
2022/12/24 12:58:54;;;;;;;22.70;16.00;;;18.40;57.40;;;;;;4902333;29;20040;-79
2022/12/24 13:01:44;;;;;;;21.63;14.52;;;18.40;57.40;;;;;;4902714;29;20039;-86